createdAt,value
2022-11-18T00:00:21.097Z,7.12
2022-11-18T00:03:23.709Z,7.70
2022-11-18T00:06:27.312Z,6.68
2022-11-18T00:09:29.500Z,6.95
2022-11-18T00:12:50.439Z,7.78
2022-11-18T00:16:06.943Z,7.90
2022-11-18T00:19:09.157Z,7.15
2022-11-18T00:22:13.111Z,7.12
2022-11-18T00:25:15.290Z,8.30
2022-11-18T00:28:17.454Z,7.03
2022-11-18T00:31:19.725Z,8.30
2022-11-18T00:34:22.217Z,8.77
2022-11-18T00:37:24.452Z,7.28
2022-11-18T00:40:26.683Z,7.03
2022-11-18T00:43:30.047Z,8.48
2022-11-18T00:46:32.342Z,7.32
2022-11-18T00:49:34.485Z,6.90
2022-11-18T00:52:36.683Z,9.05
2022-11-18T00:55:38.864Z,8.80
2022-11-18T00:58:41.065Z,8.05
2022-11-18T01:01:43.370Z,8.70
2022-11-18T01:04:45.716Z,8.93
2022-11-18T01:07:47.971Z,7.37
2022-11-18T01:10:50.841Z,7.57
2022-11-18T01:13:53.565Z,9.02
2022-11-18T01:16:56.756Z,7.78
2022-11-18T01:19:59.305Z,7.68
2022-11-18T01:23:01.650Z,7.12
2022-11-18T01:26:09.652Z,8.27
2022-11-18T01:29:11.936Z,7.78
2022-11-18T01:32:29.325Z,7.60
2022-11-18T01:35:36.355Z,8.60
2022-11-18T01:38:38.508Z,6.87
2022-11-18T01:41:40.721Z,7.82
2022-11-18T01:45:09.716Z,7.05
2022-11-18T01:48:15.203Z,5.47
2022-11-18T01:51:19.534Z,6.25
2022-11-18T01:54:27.150Z,5.97
2022-11-18T01:57:30.745Z,6.18
2022-11-18T02:00:32.967Z,10.63
2022-11-18T02:03:36.208Z,9.00
2022-11-18T02:06:38.623Z,10.85
2022-11-18T02:09:41.054Z,10.85
2022-11-18T02:12:43.308Z,9.68
2022-11-18T02:16:15.785Z,9.02
2022-11-18T02:19:18.148Z,7.20
2022-11-18T02:22:46.695Z,7.80
2022-11-18T02:26:10.497Z,6.68
2022-11-18T02:29:17.811Z,6.72
2022-11-18T02:32:33.802Z,6.93
2022-11-18T02:36:05.270Z,6.47
2022-11-18T02:45:22.578Z,6.00
2022-11-18T02:48:26.942Z,6.82
2022-11-18T02:51:30.924Z,8.45
2022-11-18T02:54:34.061Z,6.60
2022-11-18T02:57:37.560Z,6.18
2022-11-18T03:00:40.028Z,6.57
2022-11-18T03:03:42.245Z,7.32
2022-11-18T03:06:54.191Z,8.07
2022-11-18T03:09:57.611Z,6.25
2022-11-18T03:13:02.739Z,5.72
2022-11-18T03:16:10.579Z,5.47
2022-11-18T03:19:29.599Z,6.78
2022-11-18T03:22:34.750Z,5.55
2022-11-18T03:25:45.373Z,6.95
2022-11-18T03:28:58.972Z,6.32
2022-11-18T03:32:09.786Z,5.87
2022-11-18T03:35:16.464Z,7.05
2022-11-18T03:38:23.598Z,5.95
2022-11-18T03:41:26.712Z,5.90
2022-11-18T03:44:31.635Z,6.95
2022-11-18T03:47:36.779Z,7.90
2022-11-18T03:51:04.889Z,6.97
2022-11-18T03:54:11.838Z,7.25
2022-11-18T03:57:18.525Z,6.78
2022-11-18T04:00:20.898Z,6.60
2022-11-18T04:03:26.044Z,6.18
2022-11-18T04:06:38.812Z,5.60
2022-11-18T04:09:45.199Z,5.22
2022-11-18T04:12:58.591Z,5.82
2022-11-18T04:16:04.377Z,5.75
2022-11-18T04:19:06.703Z,5.35
2022-11-18T04:22:10.053Z,5.53
2022-11-18T04:25:12.302Z,5.43
2022-11-18T04:28:14.498Z,4.97
2022-11-18T04:31:16.710Z,7.00
2022-11-18T04:34:18.899Z,5.47
2022-11-18T04:37:21.422Z,4.43
2022-11-18T04:40:23.777Z,5.50
2022-11-18T04:43:25.954Z,5.37
2022-11-18T04:46:28.112Z,4.80
2022-11-18T04:49:30.583Z,4.45
2022-11-18T04:52:32.885Z,10.18
2022-11-18T04:55:37.839Z,5.75
2022-11-18T04:58:40.006Z,4.53
2022-11-18T05:01:42.526Z,6.43
2022-11-18T05:04:44.781Z,6.18
2022-11-18T05:07:47.148Z,4.60
2022-11-18T05:10:49.747Z,4.45
2022-11-18T05:13:52.342Z,5.80
2022-11-18T05:16:55.437Z,6.10
2022-11-18T05:19:57.581Z,5.18
2022-11-18T05:22:59.829Z,5.12
2022-11-18T05:26:05.982Z,4.85
2022-11-18T05:29:08.173Z,6.30
2022-11-18T05:32:10.479Z,4.40
2022-11-18T05:35:12.645Z,6.40
2022-11-18T05:38:14.895Z,5.40
2022-11-18T05:41:36.675Z,5.20
2022-11-18T05:44:39.050Z,5.72
2022-11-18T05:47:59.977Z,6.22
2022-11-18T05:51:02.230Z,5.82
2022-11-18T05:54:06.301Z,5.47
2022-11-18T05:57:08.703Z,6.47
2022-11-18T06:00:11.656Z,11.55
2022-11-18T06:03:27.511Z,7.65
2022-11-18T06:06:32.609Z,7.80
2022-11-18T06:09:37.077Z,8.32
2022-11-18T06:12:42.777Z,8.07
2022-11-18T06:15:45.545Z,7.93
2022-11-18T06:18:47.769Z,9.02
2022-11-18T06:21:50.527Z,8.98
2022-11-18T06:24:52.879Z,9.02
2022-11-18T06:27:57.535Z,7.53
2022-11-18T06:30:59.845Z,6.97
2022-11-18T06:34:02.069Z,7.15
2022-11-18T06:37:18.407Z,8.15
2022-11-18T06:40:20.731Z,6.82
2022-11-18T06:43:41.532Z,5.82
2022-11-18T06:46:55.452Z,4.40
2022-11-18T06:49:57.640Z,4.28
2022-11-18T06:53:01.176Z,3.60
2022-11-18T06:56:08.085Z,4.18
2022-11-18T06:59:10.353Z,4.57
2022-11-18T07:02:12.584Z,4.25
2022-11-18T07:05:14.782Z,4.60
2022-11-18T07:08:16.943Z,5.22
2022-11-18T07:11:24.581Z,4.70
2022-11-18T07:14:26.892Z,4.45
2022-11-18T07:17:30.692Z,4.50
2022-11-18T07:20:32.925Z,5.20
2022-11-18T07:23:35.674Z,4.70
2022-11-18T07:26:37.878Z,4.50
2022-11-18T07:29:40.034Z,4.85
2022-11-18T07:32:42.293Z,5.12
2022-11-18T07:35:44.479Z,5.65
2022-11-18T07:38:47.133Z,4.47
2022-11-18T07:41:49.305Z,5.78
2022-11-18T07:44:51.471Z,5.43
2022-11-18T07:47:53.720Z,4.93
2022-11-18T07:50:55.888Z,5.40
2022-11-18T07:53:58.207Z,5.18
2022-11-18T07:57:00.431Z,5.15
2022-11-18T08:00:04.422Z,5.05
2022-11-18T08:03:06.678Z,5.20
2022-11-18T08:06:10.156Z,3.92
2022-11-18T08:09:12.603Z,5.50
2022-11-18T08:12:14.888Z,4.87
2022-11-18T08:15:17.135Z,5.80
2022-11-18T08:18:19.415Z,4.70
2022-11-18T08:21:22.927Z,4.90
2022-11-18T08:24:25.175Z,5.43
2022-11-18T08:27:27.370Z,6.03
2022-11-18T08:30:29.575Z,5.12
2022-11-18T08:33:31.799Z,4.90
2022-11-18T08:36:36.361Z,4.22
2022-11-18T08:39:38.601Z,5.68
2022-11-18T08:42:40.838Z,5.28
2022-11-18T08:45:43.120Z,4.65
2022-11-18T08:48:45.330Z,4.87
2022-11-18T08:51:47.524Z,3.90
2022-11-18T08:54:49.724Z,5.78
2022-11-18T08:57:51.913Z,4.55
2022-11-18T09:00:54.395Z,5.70
2022-11-18T09:03:57.760Z,5.37
2022-11-18T09:06:59.964Z,5.20
2022-11-18T09:10:02.246Z,5.40
2022-11-18T09:13:25.217Z,4.82
2022-11-18T09:16:29.528Z,5.37
2022-11-18T09:19:46.780Z,4.78
2022-11-18T09:22:49.771Z,5.50
2022-11-18T09:26:02.486Z,4.93
2022-11-18T09:29:05.064Z,3.97
2022-11-18T09:32:07.279Z,3.97
2022-11-18T09:35:09.536Z,4.07
2022-11-18T09:38:11.808Z,4.35
2022-11-18T09:41:29.248Z,5.45
2022-11-18T09:44:43.216Z,4.35
2022-11-18T09:47:45.432Z,5.50
2022-11-18T09:50:50.300Z,4.93
2022-11-18T09:53:52.995Z,5.18
2022-11-18T09:56:55.857Z,5.97
2022-11-18T09:59:58.460Z,5.28
2022-11-18T10:03:01.714Z,6.07
2022-11-18T10:06:10.278Z,5.50
2022-11-18T10:09:38.270Z,4.57
2022-11-18T10:12:47.498Z,6.50
2022-11-18T10:16:04.202Z,4.43
2022-11-18T10:19:36.229Z,5.22
2022-11-18T10:22:48.892Z,4.82
2022-11-18T10:25:53.574Z,5.07
2022-11-18T10:28:55.793Z,3.58
2022-11-18T10:32:17.094Z,4.87
2022-11-18T10:35:36.675Z,4.30
2022-11-18T10:38:39.278Z,4.40
2022-11-18T10:41:50.345Z,3.33
2022-11-18T10:44:52.611Z,4.05
2022-11-18T10:48:18.290Z,3.33
2022-11-18T10:51:23.418Z,3.92
2022-11-18T10:54:25.780Z,2.50
2022-11-18T10:57:30.451Z,3.25
2022-11-18T11:00:52.836Z,3.80
2022-11-18T11:04:23.333Z,3.83
2022-11-18T11:07:28.674Z,3.12
2022-11-18T11:10:30.956Z,3.92
2022-11-18T11:13:36.024Z,3.75
2022-11-18T11:17:04.164Z,4.30
2022-11-18T11:20:23.925Z,3.87
2022-11-18T11:23:26.736Z,3.85
2022-11-18T11:30:11.915Z,3.30
2022-11-18T11:33:41.423Z,3.20
2022-11-18T11:37:03.806Z,4.22
2022-11-18T11:40:30.632Z,4.72
2022-11-18T11:43:43.640Z,4.65
2022-11-18T11:47:13.628Z,4.55
2022-11-18T11:50:18.725Z,2.05
2022-11-18T11:53:43.452Z,3.37
2022-11-18T11:56:55.734Z,3.28
2022-11-18T12:00:06.164Z,6.10
2022-11-18T12:03:20.590Z,5.12
2022-11-18T12:06:22.814Z,4.78
2022-11-18T12:09:39.367Z,4.05
2022-11-18T12:13:08.960Z,3.80
2022-11-18T12:16:19.876Z,2.92
2022-11-18T12:19:22.835Z,2.22
2022-11-18T12:23:03.339Z,4.95
2022-11-18T12:26:09.521Z,5.55
2022-11-18T12:29:20.801Z,4.43
2022-11-18T12:35:35.168Z,5.87
2022-11-18T12:38:37.420Z,1.65
2022-11-18T12:41:58.271Z,2.67
2022-11-18T12:45:38.763Z,2.17
2022-11-18T12:48:41.285Z,2.90
2022-11-18T12:51:44.361Z,2.80
2022-11-18T12:54:48.373Z,9.48
2022-11-18T12:57:50.620Z,8.88
2022-11-18T13:01:12.586Z,3.22
2022-11-18T13:04:20.099Z,3.10
2022-11-18T13:07:40.993Z,3.28
2022-11-18T13:10:55.904Z,3.97
2022-11-18T13:14:16.912Z,4.65
2022-11-18T13:17:52.272Z,4.80
2022-11-18T13:20:57.788Z,4.93
2022-11-18T13:24:01.118Z,3.35
2022-11-18T13:27:03.389Z,19.23
2022-11-18T13:30:15.255Z,8.38
2022-11-18T13:33:17.481Z,5.87
2022-11-18T13:36:24.448Z,8.45
2022-11-18T13:39:29.415Z,9.02
2022-11-18T13:42:32.093Z,6.00
2022-11-18T13:45:34.765Z,5.25
2022-11-18T13:48:40.971Z,5.15
2022-11-18T13:51:43.187Z,4.87
2022-11-18T13:54:46.189Z,5.35
2022-11-18T13:57:54.092Z,4.72
2022-11-18T14:00:58.417Z,9.15
2022-11-18T14:04:09.676Z,5.70
2022-11-18T14:07:34.987Z,4.85
2022-11-18T14:10:43.749Z,5.45
2022-11-18T14:13:52.186Z,6.00
2022-11-18T14:16:54.477Z,8.93
2022-11-18T14:19:58.264Z,9.13
2022-11-18T14:23:01.444Z,6.45
2022-11-18T14:26:05.357Z,5.93
2022-11-18T14:29:21.435Z,6.37
2022-11-18T14:32:23.961Z,10.98
2022-11-18T14:35:30.444Z,8.23
2022-11-18T14:41:58.625Z,35.95
2022-11-18T14:45:00.886Z,10.30
2022-11-18T14:48:03.196Z,6.95
2022-11-18T14:51:05.519Z,9.85
2022-11-18T14:54:11.399Z,7.57
2022-11-18T14:57:17.585Z,7.45
2022-11-18T15:00:20.208Z,6.35
2022-11-18T15:03:22.438Z,5.82
2022-11-18T15:06:24.821Z,6.45
2022-11-18T15:09:27.164Z,6.07
2022-11-18T15:12:29.330Z,7.45
2022-11-18T15:15:31.666Z,7.65
2022-11-18T15:18:33.863Z,8.93
2022-11-18T15:21:36.116Z,9.07
2022-11-18T15:24:38.541Z,8.82
2022-11-18T15:27:41.129Z,8.93
2022-11-18T15:30:43.294Z,9.40
2022-11-18T15:33:45.997Z,7.95
2022-11-18T15:36:48.539Z,6.72
2022-11-18T15:39:50.730Z,9.82
2022-11-18T15:42:52.912Z,8.75
2022-11-18T15:45:58.923Z,8.85
2022-11-18T15:49:01.529Z,10.52
2022-11-18T15:52:03.845Z,8.32
2022-11-18T15:55:08.201Z,7.28
2022-11-18T15:58:10.597Z,5.55
2022-11-18T16:01:12.799Z,5.45
2022-11-18T16:04:18.714Z,5.97
2022-11-18T16:07:21.326Z,6.93
2022-11-18T16:10:42.007Z,8.65
2022-11-18T16:13:44.456Z,8.45
2022-11-18T16:16:48.007Z,9.73
2022-11-18T16:19:50.444Z,14.75
2022-11-18T16:22:53.972Z,23.65
2022-11-18T16:25:56.159Z,13.85
2022-11-18T16:28:58.895Z,10.52
2022-11-18T16:32:01.021Z,8.82
2022-11-18T16:35:03.227Z,10.02
2022-11-18T16:38:08.149Z,7.45
2022-11-18T16:41:28.814Z,10.32
2022-11-18T16:44:31.129Z,12.33
2022-11-18T16:47:33.358Z,13.18
2022-11-18T16:50:35.555Z,14.20
2022-11-18T16:53:38.924Z,17.15
2022-11-18T16:56:41.275Z,18.77
2022-11-18T16:59:43.455Z,18.23
2022-11-18T17:02:45.811Z,20.12
2022-11-18T17:05:48.053Z,19.27
2022-11-18T17:08:50.299Z,17.25
2022-11-18T17:11:54.258Z,12.45
2022-11-18T17:14:56.496Z,11.77
2022-11-18T17:17:58.786Z,14.32
2022-11-18T17:21:12.421Z,16.62
2022-11-18T17:24:16.597Z,11.85
2022-11-18T17:27:18.967Z,10.30
2022-11-18T17:30:21.113Z,6.32
2022-11-18T17:33:23.478Z,5.97
2022-11-18T17:36:27.318Z,6.40
2022-11-18T17:39:29.553Z,6.07
2022-11-18T17:42:31.885Z,7.35
2022-11-18T17:45:34.296Z,7.70
2022-11-18T17:48:36.672Z,7.90
2022-11-18T17:51:39.315Z,7.93
2022-11-18T17:54:41.537Z,7.93
2022-11-18T17:57:43.734Z,9.07
2022-11-18T18:00:45.891Z,11.00
2022-11-18T18:03:49.025Z,10.90
2022-11-18T18:06:52.905Z,9.52
2022-11-18T18:09:55.228Z,11.73
2022-11-18T18:13:15.764Z,12.37
2022-11-18T18:16:18.662Z,11.52
2022-11-18T18:19:22.574Z,12.80
2022-11-18T18:22:25.178Z,11.77
2022-11-18T18:25:27.591Z,13.18
2022-11-18T18:28:30.095Z,14.52
2022-11-18T18:31:35.126Z,14.20
2022-11-18T18:34:37.334Z,15.73
2022-11-18T18:37:39.649Z,13.27
2022-11-18T18:40:41.847Z,12.95
2022-11-18T18:43:45.840Z,12.88
2022-11-18T18:46:48.185Z,13.00
2022-11-18T18:49:50.422Z,12.70
2022-11-18T18:52:53.108Z,13.60
2022-11-18T18:55:56.128Z,13.38
2022-11-18T18:58:58.985Z,14.57
2022-11-18T19:02:01.457Z,13.20
2022-11-18T19:05:04.250Z,13.57
2022-11-18T19:08:07.808Z,11.85
2022-11-18T19:11:30.226Z,12.13
2022-11-18T19:14:34.921Z,10.82
2022-11-18T19:17:37.616Z,9.88
2022-11-18T19:20:43.271Z,10.93
2022-11-18T19:23:46.418Z,10.82
2022-11-18T19:26:48.807Z,11.18
2022-11-18T19:29:51.437Z,10.50
2022-11-18T19:32:55.851Z,11.07
2022-11-18T19:36:02.183Z,10.18
2022-11-18T19:39:04.643Z,11.48
2022-11-18T19:42:07.694Z,10.57
2022-11-18T19:45:10.730Z,11.18
2022-11-18T19:48:13.200Z,12.60
2022-11-18T19:51:15.820Z,11.55
2022-11-18T19:54:18.232Z,9.07
2022-11-18T19:57:20.976Z,10.40
2022-11-18T20:00:23.420Z,10.70
2022-11-18T20:03:28.092Z,8.48
2022-11-18T20:06:30.390Z,10.10
2022-11-18T20:09:32.860Z,9.60
2022-11-18T20:12:36.220Z,9.70
2022-11-18T20:15:39.325Z,10.85
2022-11-18T20:18:42.896Z,11.15
2022-11-18T20:21:47.854Z,7.82
2022-11-18T20:24:50.403Z,8.73
2022-11-18T20:27:53.128Z,9.02
2022-11-18T20:30:56.228Z,8.68
2022-11-18T20:33:58.867Z,9.07
2022-11-18T20:37:01.398Z,10.07
2022-11-18T20:40:04.326Z,9.18
2022-11-18T20:43:12.193Z,8.35
2022-11-18T20:46:20.372Z,7.57
2022-11-18T20:49:23.534Z,7.32
2022-11-18T20:52:25.900Z,5.30
2022-11-18T20:55:28.385Z,5.55
2022-11-18T20:58:31.645Z,5.57
2022-11-18T21:01:34.063Z,5.30
2022-11-18T21:04:38.041Z,4.55
2022-11-18T21:07:40.221Z,5.30
2022-11-18T21:10:42.732Z,5.20
2022-11-18T21:14:03.491Z,5.10
2022-11-18T21:17:06.469Z,5.32
2022-11-18T21:20:29.084Z,4.68
2022-11-18T21:23:32.187Z,4.30
2022-11-18T21:26:35.668Z,4.30
2022-11-18T21:29:38.082Z,4.95
2022-11-18T21:32:40.272Z,3.90
2022-11-18T21:35:42.470Z,3.72
2022-11-18T21:38:44.889Z,3.92
2022-11-18T21:41:52.024Z,3.50
2022-11-18T21:44:57.368Z,3.65
2022-11-18T21:47:59.560Z,2.70
2022-11-18T21:51:03.121Z,3.33
2022-11-18T21:54:05.476Z,3.87
2022-11-18T21:57:07.657Z,3.67
2022-11-18T22:00:10.728Z,3.60
2022-11-18T22:03:12.881Z,4.00
2022-11-18T22:06:15.528Z,4.00
2022-11-18T22:09:18.089Z,3.78
2022-11-18T22:12:20.800Z,4.50
2022-11-18T22:15:23.035Z,3.80
2022-11-18T22:18:25.237Z,3.80
2022-11-18T22:21:27.467Z,3.50
2022-11-18T22:24:29.719Z,4.75
2022-11-18T22:27:31.880Z,3.10
2022-11-18T22:30:34.082Z,4.32
2022-11-18T22:33:36.731Z,4.22
2022-11-18T22:36:38.964Z,3.20
2022-11-18T22:39:41.168Z,3.35
2022-11-18T22:42:49.255Z,3.58
2022-11-18T22:46:06.559Z,4.20
2022-11-18T22:49:09.827Z,5.20
2022-11-18T22:52:11.999Z,4.25
2022-11-18T22:55:14.257Z,5.60
2022-11-18T22:58:16.484Z,4.82
2022-11-18T23:01:20.425Z,4.50
2022-11-18T23:04:22.604Z,5.53
2022-11-18T23:07:24.920Z,4.00
2022-11-18T23:10:27.152Z,3.95
2022-11-18T23:13:48.139Z,4.00
2022-11-18T23:16:50.357Z,4.30
2022-11-18T23:19:52.482Z,3.80
2022-11-18T23:22:54.672Z,4.20
2022-11-18T23:26:08.701Z,4.35
2022-11-18T23:29:12.000Z,3.80
2022-11-18T23:32:14.167Z,4.10
2022-11-18T23:35:16.362Z,4.03
2022-11-18T23:38:18.796Z,3.22
2022-11-18T23:41:21.427Z,3.80
2022-11-18T23:44:43.549Z,3.97
2022-11-18T23:47:45.740Z,3.67
2022-11-18T23:50:58.865Z,4.90
2022-11-18T23:54:01.029Z,4.95
2022-11-18T23:57:05.244Z,4.25
